sensor_id;sensor_type;location;lat;lon;timestamp;P1;durP1;ratioP1;P2;durP2;ratioP2
16727;SDS011;8482;54.396;18.590;2023-04-24T00:00:19;13.00;;;10.27;;
16727;SDS011;8482;54.396;18.590;2023-04-24T00:02:45;14.25;;;10.80;;
16727;SDS011;8482;54.396;18.590;2023-04-24T00:05:12;13.05;;;10.85;;
16727;SDS011;8482;54.396;18.590;2023-04-24T00:07:40;13.80;;;11.55;;
16727;SDS011;8482;54.396;18.590;2023-04-24T00:10:07;14.98;;;11.07;;
16727;SDS011;8482;54.396;18.590;2023-04-24T00:12:34;16.42;;;12.32;;
16727;SDS011;8482;54.396;18.590;2023-04-24T00:15:01;15.70;;;12.40;;
16727;SDS011;8482;54.396;18.590;2023-04-24T00:17:28;15.00;;;12.50;;
16727;SDS011;8482;54.396;18.590;2023-04-24T00:19:54;16.25;;;12.55;;
16727;SDS011;8482;54.396;18.590;2023-04-24T00:22:29;15.35;;;11.73;;
16727;SDS011;8482;54.396;18.590;2023-04-24T00:24:56;16.63;;;12.95;;
16727;SDS011;8482;54.396;18.590;2023-04-24T00:27:22;16.77;;;12.40;;
16727;SDS011;8482;54.396;18.590;2023-04-24T00:29:48;20.02;;;14.02;;
16727;SDS011;8482;54.396;18.590;2023-04-24T00:32:14;19.95;;;14.15;;
16727;SDS011;8482;54.396;18.590;2023-04-24T00:34:40;19.92;;;14.48;;
16727;SDS011;8482;54.396;18.590;2023-04-24T00:37:06;19.13;;;14.15;;
16727;SDS011;8482;54.396;18.590;2023-04-24T00:39:32;20.38;;;14.60;;
16727;SDS011;8482;54.396;18.590;2023-04-24T00:41:58;18.88;;;14.70;;
16727;SDS011;8482;54.396;18.590;2023-04-24T00:44:24;21.55;;;15.82;;
16727;SDS011;8482;54.396;18.590;2023-04-24T00:46:50;18.35;;;14.32;;
16727;SDS011;8482;54.396;18.590;2023-04-24T00:49:19;19.75;;;14.13;;
16727;SDS011;8482;54.396;18.590;2023-04-24T00:51:48;18.20;;;14.00;;
16727;SDS011;8482;54.396;18.590;2023-04-24T00:54:16;17.15;;;13.50;;
16727;SDS011;8482;54.396;18.590;2023-04-24T00:56:44;18.38;;;13.30;;
16727;SDS011;8482;54.396;18.590;2023-04-24T00:59:11;17.30;;;12.98;;
16727;SDS011;8482;54.396;18.590;2023-04-24T01:01:38;18.10;;;13.65;;
16727;SDS011;8482;54.396;18.590;2023-04-24T01:04:11;18.10;;;13.90;;
16727;SDS011;8482;54.396;18.590;2023-04-24T01:06:39;17.55;;;13.18;;
16727;SDS011;8482;54.396;18.590;2023-04-24T01:09:08;18.33;;;14.25;;
16727;SDS011;8482;54.396;18.590;2023-04-24T01:11:38;17.70;;;13.45;;
16727;SDS011;8482;54.396;18.590;2023-04-24T01:14:07;17.35;;;12.93;;
16727;SDS011;8482;54.396;18.590;2023-04-24T01:16:32;16.20;;;11.73;;
16727;SDS011;8482;54.396;18.590;2023-04-24T01:18:59;15.02;;;11.93;;
16727;SDS011;8482;54.396;18.590;2023-04-24T01:21:26;16.38;;;11.90;;
16727;SDS011;8482;54.396;18.590;2023-04-24T01:23:55;16.50;;;11.80;;
16727;SDS011;8482;54.396;18.590;2023-04-24T01:26:22;17.95;;;12.77;;
16727;SDS011;8482;54.396;18.590;2023-04-24T01:28:48;17.40;;;13.13;;
16727;SDS011;8482;54.396;18.590;2023-04-24T01:31:14;19.63;;;13.73;;
16727;SDS011;8482;54.396;18.590;2023-04-24T01:33:41;19.38;;;13.30;;
16727;SDS011;8482;54.396;18.590;2023-04-24T01:36:08;19.13;;;13.55;;
16727;SDS011;8482;54.396;18.590;2023-04-24T01:38:36;21.65;;;15.48;;
16727;SDS011;8482;54.396;18.590;2023-04-24T01:41:02;23.55;;;17.15;;
16727;SDS011;8482;54.396;18.590;2023-04-24T01:43:28;23.30;;;17.23;;
16727;SDS011;8482;54.396;18.590;2023-04-24T01:45:55;20.58;;;15.02;;
16727;SDS011;8482;54.396;18.590;2023-04-24T01:48:21;20.58;;;14.80;;
16727;SDS011;8482;54.396;18.590;2023-04-24T01:50:47;20.17;;;14.07;;
16727;SDS011;8482;54.396;18.590;2023-04-24T01:53:13;21.13;;;14.18;;
16727;SDS011;8482;54.396;18.590;2023-04-24T01:55:40;18.73;;;12.60;;
16727;SDS011;8482;54.396;18.590;2023-04-24T01:58:06;20.50;;;13.77;;
16727;SDS011;8482;54.396;18.590;2023-04-24T02:00:32;20.85;;;13.82;;
16727;SDS011;8482;54.396;18.590;2023-04-24T02:02:58;22.15;;;13.23;;
16727;SDS011;8482;54.396;18.590;2023-04-24T02:05:24;19.95;;;13.98;;
16727;SDS011;8482;54.396;18.590;2023-04-24T02:07:50;22.38;;;13.07;;
16727;SDS011;8482;54.396;18.590;2023-04-24T02:10:15;19.92;;;12.80;;
16727;SDS011;8482;54.396;18.590;2023-04-24T02:12:41;22.45;;;14.70;;
16727;SDS011;8482;54.396;18.590;2023-04-24T02:15:07;23.55;;;14.10;;
16727;SDS011;8482;54.396;18.590;2023-04-24T02:17:34;19.27;;;12.70;;
16727;SDS011;8482;54.396;18.590;2023-04-24T02:19:59;23.42;;;15.40;;
16727;SDS011;8482;54.396;18.590;2023-04-24T02:22:25;22.13;;;14.02;;
16727;SDS011;8482;54.396;18.590;2023-04-24T02:24:51;24.83;;;15.15;;
16727;SDS011;8482;54.396;18.590;2023-04-24T02:27:17;22.98;;;14.18;;
16727;SDS011;8482;54.396;18.590;2023-04-24T02:29:43;21.05;;;13.02;;
16727;SDS011;8482;54.396;18.590;2023-04-24T02:32:08;21.50;;;12.98;;
16727;SDS011;8482;54.396;18.590;2023-04-24T02:34:37;23.58;;;14.25;;
16727;SDS011;8482;54.396;18.590;2023-04-24T02:37:03;21.83;;;13.68;;
16727;SDS011;8482;54.396;18.590;2023-04-24T02:39:29;24.10;;;14.70;;
16727;SDS011;8482;54.396;18.590;2023-04-24T02:41:55;22.00;;;12.93;;
16727;SDS011;8482;54.396;18.590;2023-04-24T02:44:21;24.17;;;13.02;;
16727;SDS011;8482;54.396;18.590;2023-04-24T02:46:47;21.63;;;12.52;;
16727;SDS011;8482;54.396;18.590;2023-04-24T02:49:13;21.17;;;13.00;;
16727;SDS011;8482;54.396;18.590;2023-04-24T02:51:39;22.55;;;13.45;;
16727;SDS011;8482;54.396;18.590;2023-04-24T02:54:06;25.80;;;14.45;;
16727;SDS011;8482;54.396;18.590;2023-04-24T02:56:34;24.73;;;14.07;;
16727;SDS011;8482;54.396;18.590;2023-04-24T02:59:01;25.20;;;13.77;;
16727;SDS011;8482;54.396;18.590;2023-04-24T03:01:27;27.58;;;15.23;;
16727;SDS011;8482;54.396;18.590;2023-04-24T03:03:52;28.65;;;14.45;;
16727;SDS011;8482;54.396;18.590;2023-04-24T03:06:18;26.25;;;14.43;;
16727;SDS011;8482;54.396;18.590;2023-04-24T03:08:45;28.17;;;14.32;;
16727;SDS011;8482;54.396;18.590;2023-04-24T03:11:11;26.27;;;14.55;;
16727;SDS011;8482;54.396;18.590;2023-04-24T03:13:37;28.42;;;14.90;;
16727;SDS011;8482;54.396;18.590;2023-04-24T03:16:03;29.45;;;15.95;;
16727;SDS011;8482;54.396;18.590;2023-04-24T03:18:29;24.02;;;13.95;;
16727;SDS011;8482;54.396;18.590;2023-04-24T03:20:55;26.52;;;13.55;;
16727;SDS011;8482;54.396;18.590;2023-04-24T03:23:21;22.20;;;12.40;;
16727;SDS011;8482;54.396;18.590;2023-04-24T03:25:47;21.42;;;12.18;;
16727;SDS011;8482;54.396;18.590;2023-04-24T03:28:13;24.10;;;12.05;;
16727;SDS011;8482;54.396;18.590;2023-04-24T03:30:39;21.02;;;12.10;;
16727;SDS011;8482;54.396;18.590;2023-04-24T03:33:05;23.52;;;13.57;;
16727;SDS011;8482;54.396;18.590;2023-04-24T03:35:32;21.58;;;11.93;;
16727;SDS011;8482;54.396;18.590;2023-04-24T03:37:58;24.83;;;13.32;;
16727;SDS011;8482;54.396;18.590;2023-04-24T03:40:23;24.00;;;12.13;;
16727;SDS011;8482;54.396;18.590;2023-04-24T03:42:49;21.30;;;12.25;;
16727;SDS011;8482;54.396;18.590;2023-04-24T03:45:15;20.77;;;11.32;;
16727;SDS011;8482;54.396;18.590;2023-04-24T03:47:41;18.38;;;10.50;;
16727;SDS011;8482;54.396;18.590;2023-04-24T03:50:07;16.83;;;10.52;;
16727;SDS011;8482;54.396;18.590;2023-04-24T03:52:33;16.95;;;9.73;;
16727;SDS011;8482;54.396;18.590;2023-04-24T03:54:59;14.00;;;9.23;;
16727;SDS011;8482;54.396;18.590;2023-04-24T03:57:25;13.48;;;9.60;;
16727;SDS011;8482;54.396;18.590;2023-04-24T03:59:50;14.23;;;9.35;;
16727;SDS011;8482;54.396;18.590;2023-04-24T04:02:18;14.68;;;9.30;;
16727;SDS011;8482;54.396;18.590;2023-04-24T04:04:44;13.98;;;9.57;;
16727;SDS011;8482;54.396;18.590;2023-04-24T04:07:10;17.30;;;11.05;;
16727;SDS011;8482;54.396;18.590;2023-04-24T04:09:36;16.20;;;9.65;;
16727;SDS011;8482;54.396;18.590;2023-04-24T04:12:02;16.98;;;10.82;;
16727;SDS011;8482;54.396;18.590;2023-04-24T04:14:27;17.33;;;11.18;;
16727;SDS011;8482;54.396;18.590;2023-04-24T04:16:53;15.88;;;10.02;;
16727;SDS011;8482;54.396;18.590;2023-04-24T04:19:19;15.68;;;10.27;;
16727;SDS011;8482;54.396;18.590;2023-04-24T04:21:45;14.65;;;10.02;;
16727;SDS011;8482;54.396;18.590;2023-04-24T04:24:15;16.65;;;10.25;;
16727;SDS011;8482;54.396;18.590;2023-04-24T04:26:41;15.65;;;10.55;;
16727;SDS011;8482;54.396;18.590;2023-04-24T04:29:12;15.38;;;9.88;;
16727;SDS011;8482;54.396;18.590;2023-04-24T04:31:38;15.57;;;9.80;;
16727;SDS011;8482;54.396;18.590;2023-04-24T04:34:05;14.93;;;10.00;;
16727;SDS011;8482;54.396;18.590;2023-04-24T04:36:30;13.85;;;9.82;;
16727;SDS011;8482;54.396;18.590;2023-04-24T04:38:57;16.33;;;10.32;;
16727;SDS011;8482;54.396;18.590;2023-04-24T04:41:24;15.45;;;10.63;;
16727;SDS011;8482;54.396;18.590;2023-04-24T04:43:50;15.52;;;9.98;;
16727;SDS011;8482;54.396;18.590;2023-04-24T04:46:17;17.10;;;11.05;;
16727;SDS011;8482;54.396;18.590;2023-04-24T04:48:43;18.75;;;11.88;;
16727;SDS011;8482;54.396;18.590;2023-04-24T04:51:09;18.90;;;11.45;;
16727;SDS011;8482;54.396;18.590;2023-04-24T04:53:35;18.23;;;11.52;;
16727;SDS011;8482;54.396;18.590;2023-04-24T04:56:01;19.30;;;12.02;;
16727;SDS011;8482;54.396;18.590;2023-04-24T04:58:27;19.23;;;12.40;;
16727;SDS011;8482;54.396;18.590;2023-04-24T05:00:53;21.63;;;13.20;;
16727;SDS011;8482;54.396;18.590;2023-04-24T05:03:19;21.27;;;12.20;;
16727;SDS011;8482;54.396;18.590;2023-04-24T05:05:44;22.33;;;13.23;;
16727;SDS011;8482;54.396;18.590;2023-04-24T05:08:10;22.35;;;13.48;;
16727;SDS011;8482;54.396;18.590;2023-04-24T05:10:36;23.83;;;13.82;;
16727;SDS011;8482;54.396;18.590;2023-04-24T05:13:02;26.05;;;14.73;;
16727;SDS011;8482;54.396;18.590;2023-04-24T05:15:29;24.30;;;14.35;;
16727;SDS011;8482;54.396;18.590;2023-04-24T05:17:55;23.83;;;14.07;;
16727;SDS011;8482;54.396;18.590;2023-04-24T05:20:22;20.73;;;13.40;;
16727;SDS011;8482;54.396;18.590;2023-04-24T05:22:48;19.92;;;13.00;;
16727;SDS011;8482;54.396;18.590;2023-04-24T05:25:13;17.55;;;10.43;;
16727;SDS011;8482;54.396;18.590;2023-04-24T05:27:39;17.50;;;11.48;;
16727;SDS011;8482;54.396;18.590;2023-04-24T05:30:06;17.45;;;11.10;;
16727;SDS011;8482;54.396;18.590;2023-04-24T05:32:32;20.70;;;11.77;;
16727;SDS011;8482;54.396;18.590;2023-04-24T05:34:58;19.70;;;12.35;;
16727;SDS011;8482;54.396;18.590;2023-04-24T05:37:24;18.90;;;11.50;;
16727;SDS011;8482;54.396;18.590;2023-04-24T05:39:50;18.80;;;10.82;;
16727;SDS011;8482;54.396;18.590;2023-04-24T05:42:16;17.50;;;11.48;;
16727;SDS011;8482;54.396;18.590;2023-04-24T05:44:42;19.90;;;11.25;;
16727;SDS011;8482;54.396;18.590;2023-04-24T05:47:08;20.48;;;12.38;;
16727;SDS011;8482;54.396;18.590;2023-04-24T05:49:34;18.15;;;11.05;;
16727;SDS011;8482;54.396;18.590;2023-04-24T05:52:00;20.02;;;11.07;;
16727;SDS011;8482;54.396;18.590;2023-04-24T05:54:26;18.60;;;12.30;;
16727;SDS011;8482;54.396;18.590;2023-04-24T05:56:51;17.52;;;11.45;;
16727;SDS011;8482;54.396;18.590;2023-04-24T05:59:19;15.15;;;9.93;;
16727;SDS011;8482;54.396;18.590;2023-04-24T06:01:45;13.07;;;8.27;;
16727;SDS011;8482;54.396;18.590;2023-04-24T06:04:11;15.25;;;8.68;;
16727;SDS011;8482;54.396;18.590;2023-04-24T06:06:38;17.05;;;9.55;;
16727;SDS011;8482;54.396;18.590;2023-04-24T06:09:05;14.13;;;8.80;;
16727;SDS011;8482;54.396;18.590;2023-04-24T06:11:31;12.52;;;8.10;;
16727;SDS011;8482;54.396;18.590;2023-04-24T06:13:57;13.00;;;8.00;;
16727;SDS011;8482;54.396;18.590;2023-04-24T06:16:23;12.15;;;7.97;;
16727;SDS011;8482;54.396;18.590;2023-04-24T06:18:49;13.02;;;7.90;;
16727;SDS011;8482;54.396;18.590;2023-04-24T06:21:16;12.05;;;7.70;;
16727;SDS011;8482;54.396;18.590;2023-04-24T06:23:42;15.65;;;8.18;;
16727;SDS011;8482;54.396;18.590;2023-04-24T06:26:08;13.68;;;8.70;;
16727;SDS011;8482;54.396;18.590;2023-04-24T06:28:33;14.70;;;8.90;;
16727;SDS011;8482;54.396;18.590;2023-04-24T06:30:59;14.15;;;8.10;;
16727;SDS011;8482;54.396;18.590;2023-04-24T06:33:25;13.98;;;7.40;;
16727;SDS011;8482;54.396;18.590;2023-04-24T06:35:51;15.52;;;9.05;;
16727;SDS011;8482;54.396;18.590;2023-04-24T06:38:17;15.68;;;8.85;;
16727;SDS011;8482;54.396;18.590;2023-04-24T06:40:43;15.82;;;8.18;;
16727;SDS011;8482;54.396;18.590;2023-04-24T06:43:08;14.18;;;7.65;;
16727;SDS011;8482;54.396;18.590;2023-04-24T06:45:35;12.15;;;6.97;;
16727;SDS011;8482;54.396;18.590;2023-04-24T06:48:01;14.68;;;7.00;;
16727;SDS011;8482;54.396;18.590;2023-04-24T06:50:27;11.27;;;5.90;;
16727;SDS011;8482;54.396;18.590;2023-04-24T06:52:53;8.90;;;5.30;;
16727;SDS011;8482;54.396;18.590;2023-04-24T06:55:19;9.80;;;5.00;;
16727;SDS011;8482;54.396;18.590;2023-04-24T06:57:45;7.53;;;4.47;;
16727;SDS011;8482;54.396;18.590;2023-04-24T07:00:11;9.02;;;4.75;;
16727;SDS011;8482;54.396;18.590;2023-04-24T07:02:38;7.15;;;3.88;;
16727;SDS011;8482;54.396;18.590;2023-04-24T07:05:04;7.25;;;3.65;;
16727;SDS011;8482;54.396;18.590;2023-04-24T07:07:31;7.47;;;3.85;;
16727;SDS011;8482;54.396;18.590;2023-04-24T07:09:57;7.40;;;3.95;;
16727;SDS011;8482;54.396;18.590;2023-04-24T07:12:23;7.68;;;3.85;;
16727;SDS011;8482;54.396;18.590;2023-04-24T07:14:50;6.07;;;3.78;;
16727;SDS011;8482;54.396;18.590;2023-04-24T07:17:15;8.77;;;3.67;;
16727;SDS011;8482;54.396;18.590;2023-04-24T07:19:41;8.18;;;4.03;;
16727;SDS011;8482;54.396;18.590;2023-04-24T07:22:07;7.50;;;4.20;;
16727;SDS011;8482;54.396;18.590;2023-04-24T07:24:33;6.90;;;3.95;;
16727;SDS011;8482;54.396;18.590;2023-04-24T07:26:59;6.25;;;3.80;;
16727;SDS011;8482;54.396;18.590;2023-04-24T07:29:26;6.63;;;4.13;;
16727;SDS011;8482;54.396;18.590;2023-04-24T07:31:52;7.47;;;4.40;;
16727;SDS011;8482;54.396;18.590;2023-04-24T07:34:19;8.18;;;4.65;;
16727;SDS011;8482;54.396;18.590;2023-04-24T07:36:45;8.43;;;4.78;;
16727;SDS011;8482;54.396;18.590;2023-04-24T07:39:11;7.68;;;4.75;;
16727;SDS011;8482;54.396;18.590;2023-04-24T07:41:37;11.48;;;5.07;;
16727;SDS011;8482;54.396;18.590;2023-04-24T07:44:03;7.22;;;4.28;;
16727;SDS011;8482;54.396;18.590;2023-04-24T07:46:29;8.23;;;4.32;;
16727;SDS011;8482;54.396;18.590;2023-04-24T07:48:55;7.32;;;4.47;;
16727;SDS011;8482;54.396;18.590;2023-04-24T07:51:21;10.20;;;5.47;;
16727;SDS011;8482;54.396;18.590;2023-04-24T07:53:47;9.50;;;6.05;;
16727;SDS011;8482;54.396;18.590;2023-04-24T07:56:13;9.15;;;6.13;;
16727;SDS011;8482;54.396;18.590;2023-04-24T07:58:39;10.18;;;6.32;;
16727;SDS011;8482;54.396;18.590;2023-04-24T08:01:05;10.18;;;5.88;;
16727;SDS011;8482;54.396;18.590;2023-04-24T08:03:31;9.85;;;5.90;;
16727;SDS011;8482;54.396;18.590;2023-04-24T08:05:57;8.60;;;6.03;;
16727;SDS011;8482;54.396;18.590;2023-04-24T08:08:23;11.05;;;6.00;;
16727;SDS011;8482;54.396;18.590;2023-04-24T08:10:49;9.75;;;6.80;;
16727;SDS011;8482;54.396;18.590;2023-04-24T08:13:15;10.93;;;6.97;;
16727;SDS011;8482;54.396;18.590;2023-04-24T08:15:41;10.40;;;6.72;;
16727;SDS011;8482;54.396;18.590;2023-04-24T08:18:07;10.55;;;7.35;;
16727;SDS011;8482;54.396;18.590;2023-04-24T08:20:33;12.60;;;8.43;;
16727;SDS011;8482;54.396;18.590;2023-04-24T08:23:00;10.32;;;7.40;;
16727;SDS011;8482;54.396;18.590;2023-04-24T08:25:26;13.32;;;8.63;;
16727;SDS011;8482;54.396;18.590;2023-04-24T08:27:51;13.77;;;9.65;;
16727;SDS011;8482;54.396;18.590;2023-04-24T08:30:17;13.15;;;9.30;;
16727;SDS011;8482;54.396;18.590;2023-04-24T08:32:44;13.73;;;9.85;;
16727;SDS011;8482;54.396;18.590;2023-04-24T08:35:10;12.95;;;9.05;;
16727;SDS011;8482;54.396;18.590;2023-04-24T08:37:36;14.63;;;9.98;;
16727;SDS011;8482;54.396;18.590;2023-04-24T08:40:11;16.13;;;11.50;;
16727;SDS011;8482;54.396;18.590;2023-04-24T08:42:41;17.30;;;11.95;;
16727;SDS011;8482;54.396;18.590;2023-04-24T08:45:09;16.52;;;11.93;;
16727;SDS011;8482;54.396;18.590;2023-04-24T08:47:38;17.70;;;11.63;;
16727;SDS011;8482;54.396;18.590;2023-04-24T08:50:06;15.52;;;10.68;;
16727;SDS011;8482;54.396;18.590;2023-04-24T08:52:34;14.13;;;9.93;;
16727;SDS011;8482;54.396;18.590;2023-04-24T08:55:00;14.13;;;10.05;;
16727;SDS011;8482;54.396;18.590;2023-04-24T08:57:27;13.95;;;11.07;;
16727;SDS011;8482;54.396;18.590;2023-04-24T08:59:54;21.52;;;14.30;;
16727;SDS011;8482;54.396;18.590;2023-04-24T09:02:24;22.50;;;15.65;;
16727;SDS011;8482;54.396;18.590;2023-04-24T09:04:51;19.25;;;12.93;;
16727;SDS011;8482;54.396;18.590;2023-04-24T09:07:19;16.13;;;11.80;;
16727;SDS011;8482;54.396;18.590;2023-04-24T09:09:47;15.55;;;11.30;;
16727;SDS011;8482;54.396;18.590;2023-04-24T09:12:16;16.08;;;11.73;;
16727;SDS011;8482;54.396;18.590;2023-04-24T09:14:44;15.82;;;11.52;;
16727;SDS011;8482;54.396;18.590;2023-04-24T09:17:13;16.98;;;11.85;;
16727;SDS011;8482;54.396;18.590;2023-04-24T09:19:39;16.73;;;11.70;;
16727;SDS011;8482;54.396;18.590;2023-04-24T09:22:06;17.08;;;11.98;;
16727;SDS011;8482;54.396;18.590;2023-04-24T09:24:33;15.75;;;11.00;;
16727;SDS011;8482;54.396;18.590;2023-04-24T09:27:00;14.68;;;11.15;;
16727;SDS011;8482;54.396;18.590;2023-04-24T09:29:27;15.02;;;11.40;;
16727;SDS011;8482;54.396;18.590;2023-04-24T09:31:53;19.15;;;12.30;;
16727;SDS011;8482;54.396;18.590;2023-04-24T09:34:23;17.38;;;11.50;;
16727;SDS011;8482;54.396;18.590;2023-04-24T09:36:53;17.60;;;10.70;;
16727;SDS011;8482;54.396;18.590;2023-04-24T09:39:19;16.15;;;10.38;;
16727;SDS011;8482;54.396;18.590;2023-04-24T09:44:25;12.82;;;9.23;;
16727;SDS011;8482;54.396;18.590;2023-04-24T09:46:56;12.25;;;8.75;;
16727;SDS011;8482;54.396;18.590;2023-04-24T09:49:25;11.57;;;8.25;;
16727;SDS011;8482;54.396;18.590;2023-04-24T09:52:06;13.48;;;10.05;;
16727;SDS011;8482;54.396;18.590;2023-04-24T09:54:35;12.60;;;8.57;;
16727;SDS011;8482;54.396;18.590;2023-04-24T09:57:01;11.35;;;8.02;;
16727;SDS011;8482;54.396;18.590;2023-04-24T09:59:28;12.38;;;7.60;;
16727;SDS011;8482;54.396;18.590;2023-04-24T10:01:55;13.38;;;8.45;;
16727;SDS011;8482;54.396;18.590;2023-04-24T10:04:23;12.85;;;8.32;;
16727;SDS011;8482;54.396;18.590;2023-04-24T10:06:53;14.30;;;10.20;;
16727;SDS011;8482;54.396;18.590;2023-04-24T10:09:22;11.73;;;8.57;;
16727;SDS011;8482;54.396;18.590;2023-04-24T10:11:52;12.18;;;8.93;;
16727;SDS011;8482;54.396;18.590;2023-04-24T10:14:21;12.43;;;8.50;;
16727;SDS011;8482;54.396;18.590;2023-04-24T10:16:50;10.68;;;7.97;;
16727;SDS011;8482;54.396;18.590;2023-04-24T10:19:19;11.77;;;8.27;;
16727;SDS011;8482;54.396;18.590;2023-04-24T10:21:45;12.52;;;9.30;;
16727;SDS011;8482;54.396;18.590;2023-04-24T10:24:15;12.25;;;8.82;;
16727;SDS011;8482;54.396;18.590;2023-04-24T10:26:45;11.55;;;7.75;;
16727;SDS011;8482;54.396;18.590;2023-04-24T10:29:14;9.93;;;6.97;;
16727;SDS011;8482;54.396;18.590;2023-04-24T10:31:42;10.10;;;7.00;;
16727;SDS011;8482;54.396;18.590;2023-04-24T10:34:11;9.13;;;6.45;;
16727;SDS011;8482;54.396;18.590;2023-04-24T10:36:40;9.98;;;7.43;;
16727;SDS011;8482;54.396;18.590;2023-04-24T10:39:11;10.82;;;6.80;;
16727;SDS011;8482;54.396;18.590;2023-04-24T10:41:42;9.48;;;6.72;;
16727;SDS011;8482;54.396;18.590;2023-04-24T10:44:13;9.63;;;6.25;;
16727;SDS011;8482;54.396;18.590;2023-04-24T10:46:44;9.18;;;6.80;;
16727;SDS011;8482;54.396;18.590;2023-04-24T10:49:14;10.55;;;7.32;;
16727;SDS011;8482;54.396;18.590;2023-04-24T10:54:21;8.65;;;6.50;;
16727;SDS011;8482;54.396;18.590;2023-04-24T10:56:52;8.52;;;6.13;;
16727;SDS011;8482;54.396;18.590;2023-04-24T10:59:39;8.63;;;6.15;;
16727;SDS011;8482;54.396;18.590;2023-04-24T11:02:06;8.30;;;5.97;;
16727;SDS011;8482;54.396;18.590;2023-04-24T11:04:33;8.32;;;6.38;;
16727;SDS011;8482;54.396;18.590;2023-04-24T11:07:00;9.45;;;5.95;;
16727;SDS011;8482;54.396;18.590;2023-04-24T11:09:30;8.52;;;6.00;;
16727;SDS011;8482;54.396;18.590;2023-04-24T11:22:33;7.32;;;5.18;;
16727;SDS011;8482;54.396;18.590;2023-04-24T11:25:01;7.07;;;4.70;;
16727;SDS011;8482;54.396;18.590;2023-04-24T11:27:32;6.72;;;4.93;;
16727;SDS011;8482;54.396;18.590;2023-04-24T11:30:05;8.25;;;4.75;;
16727;SDS011;8482;54.396;18.590;2023-04-24T11:34:59;7.07;;;4.63;;
16727;SDS011;8482;54.396;18.590;2023-04-24T11:37:47;6.60;;;4.43;;
16727;SDS011;8482;54.396;18.590;2023-04-24T11:40:16;7.18;;;4.20;;
16727;SDS011;8482;54.396;18.590;2023-04-24T11:42:48;6.60;;;4.57;;
16727;SDS011;8482;54.396;18.590;2023-04-24T11:45:22;7.30;;;4.97;;
16727;SDS011;8482;54.396;18.590;2023-04-24T11:47:55;8.75;;;4.78;;
16727;SDS011;8482;54.396;18.590;2023-04-24T11:50:24;6.57;;;4.68;;
16727;SDS011;8482;54.396;18.590;2023-04-24T11:52:52;7.32;;;5.03;;
16727;SDS011;8482;54.396;18.590;2023-04-24T11:57:48;7.07;;;4.88;;
16727;SDS011;8482;54.396;18.590;2023-04-24T12:00:21;7.25;;;4.78;;
16727;SDS011;8482;54.396;18.590;2023-04-24T12:03:12;7.43;;;4.82;;
16727;SDS011;8482;54.396;18.590;2023-04-24T12:05:38;7.93;;;4.82;;
16727;SDS011;8482;54.396;18.590;2023-04-24T12:08:05;6.95;;;4.80;;
16727;SDS011;8482;54.396;18.590;2023-04-24T12:10:31;6.05;;;3.80;;
16727;SDS011;8482;54.396;18.590;2023-04-24T12:12:58;6.25;;;3.90;;
16727;SDS011;8482;54.396;18.590;2023-04-24T12:15:25;7.22;;;4.15;;
16727;SDS011;8482;54.396;18.590;2023-04-24T12:17:53;5.03;;;3.67;;
16727;SDS011;8482;54.396;18.590;2023-04-24T12:20:30;5.65;;;3.42;;
16727;SDS011;8482;54.396;18.590;2023-04-24T12:22:58;5.45;;;3.10;;
16727;SDS011;8482;54.396;18.590;2023-04-24T12:25:27;4.70;;;3.40;;
16727;SDS011;8482;54.396;18.590;2023-04-24T12:27:55;4.22;;;3.05;;
16727;SDS011;8482;54.396;18.590;2023-04-24T12:30:40;4.85;;;3.20;;
16727;SDS011;8482;54.396;18.590;2023-04-24T12:33:09;4.63;;;2.67;;
16727;SDS011;8482;54.396;18.590;2023-04-24T12:35:35;4.43;;;2.90;;
16727;SDS011;8482;54.396;18.590;2023-04-24T12:38:08;5.18;;;3.30;;
16727;SDS011;8482;54.396;18.590;2023-04-24T12:40:40;4.93;;;2.90;;
16727;SDS011;8482;54.396;18.590;2023-04-24T12:43:17;5.18;;;3.17;;
16727;SDS011;8482;54.396;18.590;2023-04-24T12:45:45;4.53;;;2.75;;
16727;SDS011;8482;54.396;18.590;2023-04-24T12:48:13;3.40;;;2.58;;
16727;SDS011;8482;54.396;18.590;2023-04-24T12:50:39;3.90;;;2.85;;
16727;SDS011;8482;54.396;18.590;2023-04-24T12:53:06;4.60;;;2.72;;
16727;SDS011;8482;54.396;18.590;2023-04-24T12:55:33;3.90;;;2.42;;
16727;SDS011;8482;54.396;18.590;2023-04-24T12:58:00;4.07;;;2.60;;
16727;SDS011;8482;54.396;18.590;2023-04-24T13:00:26;3.28;;;2.40;;
16727;SDS011;8482;54.396;18.590;2023-04-24T13:02:53;3.17;;;2.30;;
16727;SDS011;8482;54.396;18.590;2023-04-24T13:05:20;4.18;;;2.40;;
16727;SDS011;8482;54.396;18.590;2023-04-24T13:07:46;3.83;;;2.63;;
16727;SDS011;8482;54.396;18.590;2023-04-24T13:10:11;3.22;;;2.30;;
16727;SDS011;8482;54.396;18.590;2023-04-24T13:12:38;3.72;;;2.55;;
16727;SDS011;8482;54.396;18.590;2023-04-24T13:15:05;3.20;;;2.28;;
16727;SDS011;8482;54.396;18.590;2023-04-24T13:17:32;3.28;;;2.30;;
16727;SDS011;8482;54.396;18.590;2023-04-24T13:19:58;2.83;;;2.30;;
16727;SDS011;8482;54.396;18.590;2023-04-24T13:22:24;5.50;;;3.20;;
16727;SDS011;8482;54.396;18.590;2023-04-24T13:24:50;5.40;;;2.72;;
16727;SDS011;8482;54.396;18.590;2023-04-24T13:27:16;3.65;;;2.65;;
16727;SDS011;8482;54.396;18.590;2023-04-24T13:29:43;4.78;;;3.00;;
16727;SDS011;8482;54.396;18.590;2023-04-24T13:32:09;3.67;;;2.67;;
16727;SDS011;8482;54.396;18.590;2023-04-24T13:34:35;4.13;;;2.35;;
16727;SDS011;8482;54.396;18.590;2023-04-24T13:37:01;5.05;;;2.53;;
16727;SDS011;8482;54.396;18.590;2023-04-24T13:39:31;3.10;;;2.08;;
16727;SDS011;8482;54.396;18.590;2023-04-24T13:41:57;3.13;;;2.05;;
16727;SDS011;8482;54.396;18.590;2023-04-24T13:44:24;3.10;;;2.10;;
16727;SDS011;8482;54.396;18.590;2023-04-24T13:46:51;3.42;;;2.10;;
16727;SDS011;8482;54.396;18.590;2023-04-24T13:49:21;3.47;;;2.40;;
16727;SDS011;8482;54.396;18.590;2023-04-24T13:51:51;3.30;;;2.10;;
16727;SDS011;8482;54.396;18.590;2023-04-24T13:54:20;2.75;;;1.92;;
16727;SDS011;8482;54.396;18.590;2023-04-24T13:56:48;4.97;;;3.05;;
16727;SDS011;8482;54.396;18.590;2023-04-24T13:59:14;4.93;;;2.50;;
16727;SDS011;8482;54.396;18.590;2023-04-24T14:01:40;3.40;;;2.30;;
16727;SDS011;8482;54.396;18.590;2023-04-24T14:04:06;5.00;;;2.65;;
16727;SDS011;8482;54.396;18.590;2023-04-24T14:06:32;4.03;;;2.30;;
16727;SDS011;8482;54.396;18.590;2023-04-24T14:08:58;3.92;;;2.50;;
16727;SDS011;8482;54.396;18.590;2023-04-24T14:11:24;4.13;;;2.17;;
16727;SDS011;8482;54.396;18.590;2023-04-24T14:13:52;3.30;;;2.15;;
16727;SDS011;8482;54.396;18.590;2023-04-24T14:16:23;4.05;;;2.15;;
16727;SDS011;8482;54.396;18.590;2023-04-24T14:18:49;3.13;;;2.00;;
16727;SDS011;8482;54.396;18.590;2023-04-24T14:21:15;3.22;;;1.98;;
16727;SDS011;8482;54.396;18.590;2023-04-24T14:23:41;4.45;;;2.50;;
16727;SDS011;8482;54.396;18.590;2023-04-24T14:26:07;3.22;;;2.40;;
16727;SDS011;8482;54.396;18.590;2023-04-24T14:28:33;3.67;;;2.13;;
16727;SDS011;8482;54.396;18.590;2023-04-24T14:30:59;3.45;;;2.30;;
16727;SDS011;8482;54.396;18.590;2023-04-24T14:33:25;3.55;;;2.17;;
16727;SDS011;8482;54.396;18.590;2023-04-24T14:35:51;3.22;;;1.90;;
16727;SDS011;8482;54.396;18.590;2023-04-24T14:38:17;4.13;;;2.20;;
16727;SDS011;8482;54.396;18.590;2023-04-24T14:40:42;4.00;;;2.33;;
16727;SDS011;8482;54.396;18.590;2023-04-24T14:43:08;4.55;;;2.47;;
16727;SDS011;8482;54.396;18.590;2023-04-24T14:45:34;5.07;;;2.92;;
16727;SDS011;8482;54.396;18.590;2023-04-24T14:48:02;5.43;;;2.80;;
16727;SDS011;8482;54.396;18.590;2023-04-24T14:50:27;6.72;;;3.10;;
16727;SDS011;8482;54.396;18.590;2023-04-24T14:52:54;8.15;;;3.03;;